Wilson Cadiz — 8PSY — position and weather

sailwx.info

Track history (hours):
 
Tides and Currents Weather Stations Pressure Air Temp Water Temp Dewpoint Dewpoint Depression Visibility Wind Speed Wind Dir Waves Ship Positions

Wilson Cadiz

Last reported at 2014-Dec-21 12:03 UTC. Time now 2014-Dec-22 03:29 UTC.
Position N 37°34' W 000°59'.

Length 100 m; draft 5.6 m.

Type: Ship. MMSI: 314216000.

Date/timePositionNaut miles runAvg speedWind from/ knotsBaromVisibWave heightAir tempDewpointWater temp
2014-Dec-21 12:03N 37°34' W 000°59'3 6.8
2014-Dec-21 11:33N 37°31' W 001°02'10 9.5
2014-Dec-21 10:33N 37°23' W 001°07'213 9.1
2014-Dec-20 11:08N 35°59' W 005°12'711.6
2014-Dec-20 10:33N 35°58' W 005°20'12311.0
2014-Dec-19 23:22N 36°15' W 007°50'3410.8
2014-Dec-19 20:10N 36°24' W 008°32'810.6
2014-Dec-19 19:26N 36°26' W 008°41'1110.5
2014-Dec-19 18:23N 36°29' W 008°54'76 9.6
2014-Dec-19 10:27N 37°34' W 009°45'1210.7
2014-Dec-19 09:22N 37°45' W 009°49'1310.5
2014-Dec-19 08:09N 37°58' W 009°52'811.4
2014-Dec-19 07:28N 38°05' W 009°54'1110.8
2014-Dec-19 06:30N 38°15' W 009°58'1010.3
2014-Dec-19 05:33N 38°25' W 010°00'1010.3
2014-Dec-19 04:33N 38°35' W 010°03'1010.1
2014-Dec-19 03:33N 38°45' W 010°05'1010.3
2014-Dec-19 02:33N 38°55' W 010°05'5110.3
2014-Dec-18 21:33N 39°47' W 010°05'  
2014-Dec-15 07:10N 50°33' W 000°01'14 8.8
2014-Dec-15 05:33N 50°36' E 000°21'7 6.9
2014-Dec-15 04:33N 50°38' E 000°31'5 5.4
2014-Dec-15 03:33N 50°41' E 000°39'5 4.9
2014-Dec-15 02:33N 50°44' E 000°45'3 3.4
2014-Dec-15 01:33N 50°46' E 000°49'4 4.0
2014-Dec-15 00:33N 50°48' E 000°55'10 5.1
2014-Dec-14 22:33N 50°54' E 001°08'5 5.4
2014-Dec-14 21:34N 50°58' E 001°14'5 4.6
2014-Dec-14 20:24N 51°01' E 001°20'3 4.0
2014-Dec-14 19:33N 51°03' E 001°25'3 3.3
2014-Dec-14 18:33N 51°05' E 001°29'3 3.5
2014-Dec-14 17:33N 51°08' E 001°33'4 4.2
2014-Dec-14 16:34N 51°10' E 001°38'5 5.3
2014-Dec-14 15:33N 51°14' E 001°45'7 7.2
2014-Dec-14 14:33N 51°20' E 001°50'9 8.7
2014-Dec-14 13:33N 51°27' E 001°58'10 9.6
2014-Dec-14 12:33N 51°34' E 002°09'54 8.3
2014-Dec-14 06:04N 52°03' E 003°22'4 8.5
2014-Dec-14 05:33N 52°03' E 003°29'9 8.8
2014-Dec-14 04:33N 52°04' E 003°43'9 8.9
2014-Dec-14 03:33N 52°01' E 003°57'8 8.2
2014-Dec-14 02:32N 51°57' E 004°09'0 0.0
2014-Dec-14 01:32N 51°57' E 004°09'0 0.0
2014-Dec-14 00:32N 51°57' E 004°09'0 0.0
2014-Dec-13 23:33N 51°57' E 004°09'7 6.7
2014-Dec-13 22:33N 51°60' E 003°59'9 8.1
2014-Dec-13 21:29N 52°04' E 003°46'910.1
2014-Dec-13 20:33N 52°13' E 003°47'10 9.6
2014-Dec-13 19:33N 52°23' E 003°49'9 9.2
2014-Dec-13 18:33N 52°32' E 003°52'9 9.4
2014-Dec-13 17:33N 52°41' E 003°55'1010.2
2014-Dec-13 16:32N 52°51' E 003°58'1010.2
2014-Dec-13 15:31N 53°00' E 004°06'1410.6
2014-Dec-13 14:12N 53°10' E 004°23'2010.4
2014-Dec-13 12:18N 53°28' E 004°35'7 9.5
2014-Dec-13 11:32N 53°35' E 004°39'9 9.5
2014-Dec-13 10:32N 53°44' E 004°42'9 9.3
2014-Dec-13 09:32N 53°54' E 004°44'9 9.1
2014-Dec-13 08:33N 54°03' E 004°45'1010.1
2014-Dec-13 07:33N 54°12' E 004°41'  
Track history (hours):
 
Tides and Currents Weather Stations Pressure Air Temp Water Temp Dewpoint Dewpoint Depression Visibility Wind Speed Wind Dir Waves Ship Positions

Wilson Cadiz

Last reported at 2014-Dec-21 12:03 UTC. Time now 2014-Dec-22 03:29 UTC.
Position N 37°34' W 000°59'.

Length 100 m; draft 5.6 m.

Type: Ship. MMSI: 314216000.

Date/timePositionNaut miles runAvg speedWind from/ knotsBaromVisibWave heightAir tempDewpointWater temp
2014-Dec-21 12:03N 37°34' W 000°59'3 6.8
2014-Dec-21 11:33N 37°31' W 001°02'10 9.5
2014-Dec-21 10:33N 37°23' W 001°07'213 9.1
2014-Dec-20 11:08N 35°59' W 005°12'711.6
2014-Dec-20 10:33N 35°58' W 005°20'12311.0
2014-Dec-19 23:22N 36°15' W 007°50'3410.8
2014-Dec-19 20:10N 36°24' W 008°32'810.6
2014-Dec-19 19:26N 36°26' W 008°41'1110.5
2014-Dec-19 18:23N 36°29' W 008°54'76 9.6
2014-Dec-19 10:27N 37°34' W 009°45'1210.7
2014-Dec-19 09:22N 37°45' W 009°49'1310.5
2014-Dec-19 08:09N 37°58' W 009°52'811.4
2014-Dec-19 07:28N 38°05' W 009°54'1110.8
2014-Dec-19 06:30N 38°15' W 009°58'1010.3
2014-Dec-19 05:33N 38°25' W 010°00'1010.3
2014-Dec-19 04:33N 38°35' W 010°03'1010.1
2014-Dec-19 03:33N 38°45' W 010°05'1010.3
2014-Dec-19 02:33N 38°55' W 010°05'5110.3
2014-Dec-18 21:33N 39°47' W 010°05'  
2014-Dec-15 07:10N 50°33' W 000°01'14 8.8
2014-Dec-15 05:33N 50°36' E 000°21'7 6.9
2014-Dec-15 04:33N 50°38' E 000°31'5 5.4
2014-Dec-15 03:33N 50°41' E 000°39'5 4.9
2014-Dec-15 02:33N 50°44' E 000°45'3 3.4
2014-Dec-15 01:33N 50°46' E 000°49'4 4.0
2014-Dec-15 00:33N 50°48' E 000°55'10 5.1
2014-Dec-14 22:33N 50°54' E 001°08'5 5.4
2014-Dec-14 21:34N 50°58' E 001°14'5 4.6
2014-Dec-14 20:24N 51°01' E 001°20'3 4.0
2014-Dec-14 19:33N 51°03' E 001°25'3 3.3
2014-Dec-14 18:33N 51°05' E 001°29'3 3.5
2014-Dec-14 17:33N 51°08' E 001°33'4 4.2
2014-Dec-14 16:34N 51°10' E 001°38'5 5.3
2014-Dec-14 15:33N 51°14' E 001°45'7 7.2
2014-Dec-14 14:33N 51°20' E 001°50'9 8.7
2014-Dec-14 13:33N 51°27' E 001°58'10 9.6
2014-Dec-14 12:33N 51°34' E 002°09'54 8.3
2014-Dec-14 06:04N 52°03' E 003°22'4 8.5
2014-Dec-14 05:33N 52°03' E 003°29'9 8.8
2014-Dec-14 04:33N 52°04' E 003°43'9 8.9
2014-Dec-14 03:33N 52°01' E 003°57'8 8.2
2014-Dec-14 02:32N 51°57' E 004°09'0 0.0
2014-Dec-14 01:32N 51°57' E 004°09'0 0.0
2014-Dec-14 00:32N 51°57' E 004°09'0 0.0
2014-Dec-13 23:33N 51°57' E 004°09'7 6.7
2014-Dec-13 22:33N 51°60' E 003°59'9 8.1
2014-Dec-13 21:29N 52°04' E 003°46'910.1
2014-Dec-13 20:33N 52°13' E 003°47'10 9.6
2014-Dec-13 19:33N 52°23' E 003°49'9 9.2
2014-Dec-13 18:33N 52°32' E 003°52'9 9.4
2014-Dec-13 17:33N 52°41' E 003°55'1010.2
2014-Dec-13 16:32N 52°51' E 003°58'1010.2
2014-Dec-13 15:31N 53°00' E 004°06'1410.6
2014-Dec-13 14:12N 53°10' E 004°23'2010.4
2014-Dec-13 12:18N 53°28' E 004°35'7 9.5
2014-Dec-13 11:32N 53°35' E 004°39'9 9.5
2014-Dec-13 10:32N 53°44' E 004°42'9 9.3
2014-Dec-13 09:32N 53°54' E 004°44'9 9.1
2014-Dec-13 08:33N 54°03' E 004°45'1010.1
2014-Dec-13 07:33N 54°12' E 004°41'  

Dump ship's entire track history